Ascanius — V7FS9 — position and weather

sailwx.info

Track history (hours):
 
Tides and Currents Weather Stations Pressure Air Temp Water Temp Dewpoint Dewpoint Depression Visibility Wind Speed Wind Dir Waves Ship Positions

Ascanius

Last reported at 2017-Apr-05 19:47 UTC. Time now 2017-Apr-30 01:22 UTC.
Position S 20°04' E 056°08'.
Warning: this ship's position is 24 days out of date.

Length 225 m; draft 8.6 m.

Type: Cargo ship. MMSI: 538002012.

Date/timePositionNaut miles runAvg speedWind from/ knotsBaromVisibWave heightAir tempDewpointWater temp
2017-Apr-05 19:47S 20°04' E 056°08'412.4
2017-Apr-05 19:26S 20°02' E 056°13'2812.2
2017-Apr-05 17:09S 19°52' E 056°40'212.3
2017-Apr-05 16:57S 19°51' E 056°42'612.4
2017-Apr-05 16:28S 19°48' E 056°48'612.5
2017-Apr-05 16:00S 19°46' E 056°54'712.5
2017-Apr-05 15:27S 19°44' E 057°01'612.5
2017-Apr-05 14:59S 19°42' E 057°06'1212.4
2017-Apr-05 14:01S 19°37' E 057°19'612.1
2017-Apr-05 13:30S 19°35' E 057°25'612.3
2017-Apr-05 13:00S 19°33' E 057°31'612.3
2017-Apr-05 12:30S 19°30' E 057°37'612.0
2017-Apr-05 12:00S 19°28' E 057°43'611.8
2017-Apr-05 11:28S 19°25' E 057°49'  
Track history (hours):
 
Tides and Currents Weather Stations Pressure Air Temp Water Temp Dewpoint Dewpoint Depression Visibility Wind Speed Wind Dir Waves Ship Positions

Ascanius

Last reported at 2017-Apr-05 19:47 UTC. Time now 2017-Apr-30 01:22 UTC.
Position S 20°04' E 056°08'.
Warning: this ship's position is 24 days out of date.

Length 225 m; draft 8.6 m.

Type: Cargo ship. MMSI: 538002012.

Date/timePositionNaut miles runAvg speedWind from/ knotsBaromVisibWave heightAir tempDewpointWater temp
2017-Apr-05 19:47S 20°04' E 056°08'412.4
2017-Apr-05 19:26S 20°02' E 056°13'2812.2
2017-Apr-05 17:09S 19°52' E 056°40'212.3
2017-Apr-05 16:57S 19°51' E 056°42'612.4
2017-Apr-05 16:28S 19°48' E 056°48'612.5
2017-Apr-05 16:00S 19°46' E 056°54'712.5
2017-Apr-05 15:27S 19°44' E 057°01'612.5
2017-Apr-05 14:59S 19°42' E 057°06'1212.4
2017-Apr-05 14:01S 19°37' E 057°19'612.1
2017-Apr-05 13:30S 19°35' E 057°25'612.3
2017-Apr-05 13:00S 19°33' E 057°31'612.3
2017-Apr-05 12:30S 19°30' E 057°37'612.0
2017-Apr-05 12:00S 19°28' E 057°43'611.8
2017-Apr-05 11:28S 19°25' E 057°49'  

Dump ship's entire track history